createdAt,value
2023-05-12T00:01:29.720Z,52.96
2023-05-12T00:06:33.336Z,53.06
2023-05-12T00:11:38.544Z,53.20
2023-05-12T00:16:42.355Z,53.39
2023-05-12T00:21:46.464Z,53.66
2023-05-12T00:26:50.093Z,53.70
2023-05-12T00:31:53.864Z,53.97
2023-05-12T00:36:57.749Z,54.08
2023-05-12T00:42:04.837Z,54.16
2023-05-12T00:47:09.658Z,54.39
2023-05-12T00:52:13.500Z,54.50
2023-05-12T00:57:19.694Z,54.61
2023-05-12T01:02:23.547Z,54.75
2023-05-12T01:07:28.458Z,55.06
2023-05-12T01:12:33.982Z,55.19
2023-05-12T01:17:43.702Z,55.42
2023-05-12T01:22:48.822Z,55.54
2023-05-12T01:27:53.399Z,55.68
2023-05-12T01:32:58.940Z,55.99
2023-05-12T01:38:03.541Z,56.09
2023-05-12T01:43:13.043Z,56.33
2023-05-12T01:48:16.709Z,56.50
2023-05-12T01:53:20.831Z,56.70
2023-05-12T01:58:25.456Z,56.82
2023-05-12T02:03:30.365Z,56.96
2023-05-12T02:08:34.359Z,57.25
2023-05-12T02:13:38.156Z,57.35
2023-05-12T02:18:42.465Z,57.55
2023-05-12T02:23:47.459Z,57.72
2023-05-12T02:28:51.781Z,57.96
2023-05-12T02:34:00.184Z,58.30
2023-05-12T02:39:04.179Z,58.51
2023-05-12T02:44:09.251Z,58.58
2023-05-12T02:49:13.388Z,58.76
2023-05-12T02:54:17.219Z,59.15
2023-05-12T02:59:23.758Z,59.31
2023-05-12T03:04:27.621Z,59.76
2023-05-12T03:09:31.377Z,59.93
2023-05-12T03:14:35.154Z,60.22
2023-05-12T03:19:39.111Z,60.43
2023-05-12T03:24:42.739Z,60.71
2023-05-12T03:29:46.459Z,60.71
2023-05-12T03:34:50.078Z,60.96
2023-05-12T03:39:56.351Z,61.36
2023-05-12T03:45:00.579Z,61.06
2023-05-12T03:50:04.633Z,61.18
2023-05-12T03:55:09.506Z,61.36
2023-05-12T04:00:14.003Z,60.64
2023-05-12T04:05:21.165Z,60.82
2023-05-12T04:10:24.905Z,60.98
2023-05-12T04:15:28.703Z,60.46
2023-05-12T04:20:32.558Z,60.72
2023-05-12T04:25:40.735Z,59.60
2023-05-12T04:30:44.627Z,60.37
2023-05-12T04:35:48.448Z,60.53
2023-05-12T04:40:53.733Z,58.88
2023-05-12T04:45:59.940Z,56.95
2023-05-12T04:51:07.164Z,56.99
2023-05-12T04:56:11.034Z,57.62
2023-05-12T05:01:16.586Z,58.34
2023-05-12T05:06:22.083Z,58.54
2023-05-12T05:11:28.477Z,58.50
2023-05-12T05:16:32.334Z,58.66
2023-05-12T05:21:36.317Z,58.77
2023-05-12T05:26:41.013Z,58.74
2023-05-12T05:31:45.184Z,59.12
2023-05-12T05:36:49.137Z,58.81
2023-05-12T05:41:53.086Z,58.40
2023-05-12T05:46:57.030Z,58.29
2023-05-12T05:52:02.804Z,58.32
2023-05-12T05:57:06.874Z,57.83
2023-05-12T06:02:11.261Z,57.73
2023-05-12T06:07:14.904Z,57.83
2023-05-12T06:12:19.398Z,57.26
2023-05-12T06:17:23.209Z,57.32
2023-05-12T06:22:26.928Z,57.53
2023-05-12T06:27:30.716Z,57.10
2023-05-12T06:32:34.525Z,57.20
2023-05-12T06:37:38.713Z,56.91
2023-05-12T06:42:42.329Z,56.49
2023-05-12T06:47:46.395Z,56.44
2023-05-12T06:52:50.827Z,56.70
2023-05-12T06:57:56.320Z,56.20
2023-05-12T07:03:00.116Z,55.79
2023-05-12T07:08:04.318Z,55.51
2023-05-12T07:13:08.144Z,55.47
2023-05-12T07:18:11.887Z,55.23
2023-05-12T07:23:16.994Z,55.25
2023-05-12T07:28:20.673Z,55.47
2023-05-12T07:33:24.377Z,55.12
2023-05-12T07:38:28.125Z,54.51
2023-05-12T07:43:31.754Z,54.27
2023-05-12T07:48:40.141Z,54.17
2023-05-12T07:53:43.996Z,53.92
2023-05-12T07:58:48.062Z,53.31
2023-05-12T08:03:52.042Z,53.20
2023-05-12T08:08:58.504Z,52.92
2023-05-12T08:14:02.404Z,52.43
2023-05-12T08:19:05.927Z,52.26
2023-05-12T08:24:09.843Z,52.18
2023-05-12T08:29:13.685Z,51.92
2023-05-12T08:34:17.459Z,51.74
2023-05-12T08:39:21.998Z,51.85
2023-05-12T08:44:26.064Z,50.86
2023-05-12T08:49:32.722Z,51.03
2023-05-12T08:54:48.656Z,50.53
2023-05-12T09:00:01.891Z,50.10
2023-05-12T09:05:06.024Z,50.07
2023-05-12T09:10:29.943Z,50.04
2023-05-12T09:15:46.250Z,49.24
2023-05-12T09:20:50.160Z,49.03
2023-05-12T09:26:05.678Z,48.60
2023-05-12T09:31:21.833Z,48.93
2023-05-12T09:36:26.262Z,48.66
2023-05-12T09:41:30.020Z,47.75
2023-05-12T09:46:34.201Z,47.41
2023-05-12T09:51:38.376Z,47.20
2023-05-12T09:56:44.769Z,46.65
2023-05-12T10:01:49.658Z,46.81
2023-05-12T10:06:54.250Z,46.70
2023-05-12T10:11:58.793Z,46.05
2023-05-12T10:17:03.177Z,45.53
2023-05-12T10:22:13.891Z,45.31
2023-05-12T10:27:18.569Z,44.61
2023-05-12T10:32:22.407Z,44.45
2023-05-12T10:37:29.596Z,44.49
2023-05-12T10:42:43.599Z,43.85
2023-05-12T10:47:47.448Z,43.63
2023-05-12T10:52:55.742Z,43.27
2023-05-12T10:58:13.397Z,42.79
2023-05-12T11:03:25.531Z,42.76
2023-05-12T11:08:30.877Z,41.92
2023-05-12T11:13:36.126Z,41.13
2023-05-12T11:18:39.897Z,40.50
2023-05-12T11:23:43.761Z,40.56
2023-05-12T11:28:48.167Z,40.85
2023-05-12T11:34:11.983Z,40.70
2023-05-12T11:39:23.451Z,40.57
2023-05-12T11:44:27.156Z,40.21
2023-05-12T11:49:31.832Z,39.32
2023-05-12T11:54:36.113Z,39.05
2023-05-12T11:59:39.847Z,38.68
2023-05-12T12:04:43.865Z,38.40
2023-05-12T12:09:47.625Z,38.65
2023-05-12T12:14:51.343Z,37.83
2023-05-12T12:19:55.041Z,37.63
2023-05-12T12:24:58.933Z,37.61
2023-05-12T12:30:03.229Z,37.32
2023-05-12T12:35:07.690Z,36.70
2023-05-12T12:40:12.523Z,36.28
2023-05-12T12:45:16.977Z,35.52
2023-05-12T12:50:23.895Z,35.49
2023-05-12T12:55:28.992Z,34.68
2023-05-12T13:00:33.234Z,34.84
2023-05-12T13:05:37.145Z,34.42
2023-05-12T13:10:42.386Z,34.13
2023-05-12T13:15:46.262Z,33.89
2023-05-12T13:20:50.195Z,33.96
2023-05-12T13:25:54.124Z,34.24
2023-05-12T13:30:58.521Z,33.86
2023-05-12T13:36:02.321Z,33.84
2023-05-12T13:41:06.104Z,33.62
2023-05-12T13:46:09.974Z,33.77
2023-05-12T13:51:14.657Z,33.40
2023-05-12T13:56:18.552Z,32.84
2023-05-12T14:01:22.485Z,33.14
2023-05-12T14:06:27.558Z,33.40
2023-05-12T14:11:31.384Z,33.00
2023-05-12T14:16:35.495Z,32.83
2023-05-12T14:21:41.375Z,32.70
2023-05-12T14:26:45.208Z,32.19
2023-05-12T14:31:49.040Z,32.58
2023-05-12T14:36:52.955Z,32.43
2023-05-12T14:41:56.771Z,32.34
2023-05-12T14:47:01.233Z,32.38
2023-05-12T14:52:06.029Z,32.06
2023-05-12T14:57:10.894Z,32.27
2023-05-12T15:02:14.664Z,32.13
2023-05-12T15:07:18.363Z,32.24
2023-05-12T15:12:22.480Z,32.56
2023-05-12T15:17:27.741Z,32.81
2023-05-12T15:22:33.758Z,33.22
2023-05-12T15:27:37.791Z,33.05
2023-05-12T15:32:43.212Z,33.14
2023-05-12T15:37:47.141Z,32.94
2023-05-12T15:42:50.931Z,33.27
2023-05-12T15:47:54.926Z,33.28
2023-05-12T15:52:58.982Z,33.04
2023-05-12T15:58:03.930Z,33.06
2023-05-12T16:03:08.278Z,33.06
2023-05-12T16:08:14.472Z,33.08
2023-05-12T16:13:18.252Z,33.08
2023-05-12T16:18:22.113Z,33.08
2023-05-12T16:23:26.649Z,33.13
2023-05-12T16:28:32.381Z,33.20
2023-05-12T16:33:36.357Z,33.03
2023-05-12T16:38:40.229Z,33.01
2023-05-12T16:43:46.141Z,32.71
2023-05-12T16:48:51.190Z,32.86
2023-05-12T16:53:55.051Z,32.52
2023-05-12T16:59:00.604Z,31.81
2023-05-12T17:04:04.606Z,31.63
2023-05-12T17:09:08.703Z,31.49
2023-05-12T17:14:12.897Z,31.46
2023-05-12T17:19:16.604Z,31.00
2023-05-12T17:24:21.064Z,31.06
2023-05-12T17:29:24.785Z,31.18
2023-05-12T17:34:36.954Z,30.73
2023-05-12T17:39:42.784Z,30.93
2023-05-12T17:44:46.723Z,31.13
2023-05-12T17:49:52.861Z,31.38
2023-05-12T17:54:58.020Z,31.46
2023-05-12T18:00:10.250Z,31.50
2023-05-12T18:05:22.077Z,32.01
2023-05-12T18:10:26.245Z,32.33
2023-05-12T18:15:30.719Z,32.58
2023-05-12T18:20:37.749Z,32.72
2023-05-12T18:25:44.256Z,33.13
2023-05-12T18:30:48.145Z,33.53
2023-05-12T18:35:52.188Z,33.66
2023-05-12T18:40:56.848Z,34.01
2023-05-12T18:46:01.866Z,34.51
2023-05-12T18:51:06.438Z,34.91
2023-05-12T18:56:10.861Z,35.19
2023-05-12T19:01:15.161Z,35.52
2023-05-12T19:06:19.099Z,35.82
2023-05-12T19:11:23.267Z,36.29
2023-05-12T19:16:27.381Z,36.70
2023-05-12T19:21:33.139Z,36.95
2023-05-12T19:26:38.139Z,37.40
2023-05-12T19:31:42.508Z,37.67
2023-05-12T19:36:47.246Z,37.97
2023-05-12T19:41:52.252Z,38.27
2023-05-12T19:47:00.160Z,38.53
2023-05-12T19:52:06.136Z,38.76
2023-05-12T19:57:10.537Z,39.02
2023-05-12T20:02:19.836Z,39.24
2023-05-12T20:07:23.856Z,39.50
2023-05-12T20:12:28.027Z,39.91
2023-05-12T20:17:31.884Z,40.29
2023-05-12T20:22:35.649Z,40.70
2023-05-12T20:27:39.398Z,40.92
2023-05-12T20:32:44.235Z,41.31
2023-05-12T20:37:49.061Z,41.54
2023-05-12T20:42:53.185Z,41.83
2023-05-12T20:47:57.058Z,42.23
2023-05-12T20:53:01.356Z,42.57
2023-05-12T20:58:05.071Z,42.79
2023-05-12T21:03:14.741Z,43.18
2023-05-12T21:08:19.198Z,43.30
2023-05-12T21:13:23.045Z,43.47
2023-05-12T21:18:27.333Z,43.79
2023-05-12T21:23:31.442Z,43.97
2023-05-12T21:28:35.125Z,44.05
2023-05-12T21:33:39.662Z,44.36
2023-05-12T21:38:43.636Z,44.52
2023-05-12T21:43:50.229Z,44.81
2023-05-12T21:48:54.314Z,44.90
2023-05-12T21:53:58.818Z,45.21
2023-05-12T21:59:03.885Z,45.32
2023-05-12T22:04:08.046Z,45.65
2023-05-12T22:09:12.031Z,45.68
2023-05-12T22:14:16.605Z,45.97
2023-05-12T22:19:20.233Z,46.15
2023-05-12T22:24:24.218Z,46.33
2023-05-12T22:29:27.958Z,46.47
2023-05-12T22:34:31.697Z,46.71
2023-05-12T22:39:35.302Z,46.97
2023-05-12T22:44:39.478Z,47.08
2023-05-12T22:49:43.757Z,47.22
2023-05-12T22:54:47.451Z,47.45
2023-05-12T22:59:51.465Z,47.57
2023-05-12T23:04:55.900Z,47.76
2023-05-12T23:09:59.741Z,47.84
2023-05-12T23:15:05.477Z,47.90
2023-05-12T23:20:10.319Z,48.06
2023-05-12T23:25:14.045Z,48.19
2023-05-12T23:30:17.955Z,48.25
2023-05-12T23:35:21.627Z,48.41
2023-05-12T23:40:25.396Z,48.58
2023-05-12T23:45:29.199Z,48.71
2023-05-12T23:50:32.962Z,48.84
2023-05-12T23:55:37.782Z,48.98
